Bookmark and Share
Track history (hours):
 

Kirsten H

More information available from US FCC via Universal Licensing System and Coast Guard Vessel Documentation Center.

Last reported at 2014-Apr-18 11:07 UTC. Time now 2014-Apr-18 20:58 UTC.
Position N 50°33' W 126°45'.

Length 22 m; draft 4.2 m.

Type: Tow > 200 m length. MMSI: 366623050.

NotesDate/timePositionNaut miles runAvg speedWind from/ knotsBaromVisibWave heightAir tempDewpointWater temp
2014-Apr-18 11:07N 50°33' W 126°45'0 0.1
2014-Apr-18 10:24N 50°33' W 126°45'4 3.4
2014-Apr-18 09:19N 50°31' W 126°40'5 1.7
2014-Apr-18 06:30N 50°33' W 126°47'1 0.2
2014-Apr-18 02:19N 50°33' W 126°46'64 3.3
2014-Apr-17 07:10N 50°05' W 125°16'6 8.2
2014-Apr-17 06:29N 49°60' W 125°12'6 6.5
2014-Apr-17 05:32N 49°55' W 125°06'5 5.4
2014-Apr-17 04:32N 49°52' W 124°59'6 5.6
2014-Apr-17 03:31N 49°48' W 124°52'6 6.0
2014-Apr-17 02:32N 49°44' W 124°45'6 6.3
2014-Apr-17 01:33N 49°41' W 124°37'6 5.8
2014-Apr-17 00:33N 49°38' W 124°30'3 2.5
2014-Apr-16 23:29N 49°36' W 124°27'2 1.6
2014-Apr-16 22:33N 49°37' W 124°29'6 5.9
2014-Apr-16 21:33N 49°34' W 124°21'6 6.2
2014-Apr-16 20:33N 49°31' W 124°12'6 6.3
2014-Apr-16 19:33N 49°27' W 124°05'6 6.1
2014-Apr-16 18:33N 49°23' W 123°58'6 5.9
2014-Apr-16 17:33N 49°20' W 123°50'6 6.2
2014-Apr-16 16:33N 49°16' W 123°43'6 6.3
2014-Apr-16 15:33N 49°12' W 123°35'7 6.6
2014-Apr-16 14:33N 49°08' W 123°27'7 6.9
2014-Apr-16 13:33N 49°04' W 123°19'7 7.2
2014-Apr-16 12:32N 48°59' W 123°11'8 7.7
2014-Apr-16 11:33N 48°53' W 123°02'7 7.4
2014-Apr-16 10:33N 48°49' W 122°54'7 7.4
2014-Apr-16 09:33N 48°44' W 122°45'6 6.3
2014-Apr-16 08:33N 48°38' W 122°44'6 6.1
2014-Apr-16 07:33N 48°32' W 122°45'6 5.7
2014-Apr-16 06:33N 48°26' W 122°44'7 6.2
2014-Apr-16 05:30N 48°19' W 122°46'16 6.9
2014-Apr-16 03:10N 48°04' W 122°38'5 8.2
2014-Apr-16 02:31N 47°59' W 122°35'7 7.3
2014-Apr-16 01:33N 47°54' W 122°28'7 7.1
2014-Apr-16 00:33N 47°47' W 122°26'6 6.4
2014-Apr-15 23:33N 47°41' W 122°27'6 5.4
2014-Apr-15 22:31N 47°36' W 122°23'1 0.5
2014-Apr-15 21:31N 47°35' W 122°22'0 0.0
2014-Apr-15 20:31N 47°35' W 122°22'3 3.4
2014-Apr-15 19:33N 47°33' W 122°20'0 0.3
2014-Apr-15 18:18N 47°32' W 122°20'  
2014-Apr-11 21:21N 47°32' W 122°20'3 4.3
2014-Apr-11 20:33N 47°35' W 122°22'3 3.2
2014-Apr-11 19:33N 47°32' W 122°20'  

Dump ship's entire track history

sailing weather and tide predictions

Kirsten H — WY7979 — position and weather